Terminal Aerodrome Forecast
Issued by NWS Charleston, WV

Current Version | Previous Version | Text Only | Print | Product List | Glossary Off
Versions: 1 2 3 4 5 6 7 8 9 10 11 12 13 14 15 16 17 18 19 20 21 22

000
FTUS41 KRLX 112300
TAFEKN
TAF
KEKN 112340Z 1200/1224 00000KT P6SM SKC
     FM120400 00000KT 5SM BR SKC
     FM120700 00000KT 4SM BR SCT001
     FM120900 00000KT 1SM BR BKN001
     FM121300 00000KT P6SM SKC
     FM121600 24005KT P6SM SCT040
     FM122200 23003KT P6SM BKN090=

USA.gov is the U.S. government's official web portal to all federal, state and local government web resources and services.